Table Rock, Nebraska
Current Conditions -  °F | °C
As of 6:07 PM on Saturday 20 Dec 2014 (Local Time) from KFNB Reporting Station
Haze Haze  
Wind Chill:   Ceiling: 300
Heat Index:   Visibility: 4mi
Dew Point:   Wind: 0mph
Humidity: 92%   Direction: NA
Pressure: 30.1"   Gusts: NA
Location:  40.18°N, 96.1°W
Report Text: KFNB 210007Z AUTO 00000KT 4SM BR OVC003 02/01 A3010 RMK AO2 T00170006
Loading
Personal Weather Stations






























Interactive Weather Map New forecast layout! Learn more

10-Day Weather Forecast

Advertisements
Track Severe Weather on mobile